sensor_id;sensor_type;location;lat;lon;timestamp;pressure;altitude;pressure_sealevel;temperature;humidity
66196;BME280;53000;45.182;5.736;2023-08-07T00:00:21;99555.31;;;19.85;46.68
66196;BME280;53000;45.182;5.736;2023-08-07T00:02:46;99548.53;;;19.88;46.27
66196;BME280;53000;45.182;5.736;2023-08-07T00:05:12;99539.91;;;19.84;45.42
66196;BME280;53000;45.182;5.736;2023-08-07T00:07:37;99542.03;;;19.82;45.49
66196;BME280;53000;45.182;5.736;2023-08-07T00:10:02;99551.09;;;19.83;45.93
66196;BME280;53000;45.182;5.736;2023-08-07T00:12:28;99550.09;;;19.77;46.84
66196;BME280;53000;45.182;5.736;2023-08-07T00:14:54;99550.75;;;19.72;46.06
66196;BME280;53000;45.182;5.736;2023-08-07T00:17:19;99556.66;;;19.69;46.51
66196;BME280;53000;45.182;5.736;2023-08-07T00:19:44;99545.94;;;19.61;47.31
66196;BME280;53000;45.182;5.736;2023-08-07T00:22:10;99549.94;;;19.65;46.78
66196;BME280;53000;45.182;5.736;2023-08-07T00:24:35;99551.44;;;19.61;47.44
66196;BME280;53000;45.182;5.736;2023-08-07T00:27:01;99551.84;;;19.65;47.26
66196;BME280;53000;45.182;5.736;2023-08-07T00:29:26;99546.13;;;19.66;48.31
66196;BME280;53000;45.182;5.736;2023-08-07T00:31:51;99537.72;;;19.61;47.58
66196;BME280;53000;45.182;5.736;2023-08-07T00:34:17;99545.13;;;19.60;47.32
66196;BME280;53000;45.182;5.736;2023-08-07T00:36:43;99543.22;;;19.61;47.26
66196;BME280;53000;45.182;5.736;2023-08-07T00:39:08;99553.13;;;19.62;47.22
66196;BME280;53000;45.182;5.736;2023-08-07T00:41:33;99554.41;;;19.59;47.63
66196;BME280;53000;45.182;5.736;2023-08-07T00:43:59;99556.78;;;19.56;47.29
66196;BME280;53000;45.182;5.736;2023-08-07T00:46:26;99545.19;;;19.47;47.40
66196;BME280;53000;45.182;5.736;2023-08-07T00:48:52;99537.00;;;19.40;47.93
66196;BME280;53000;45.182;5.736;2023-08-07T00:51:19;99533.00;;;19.36;48.09
66196;BME280;53000;45.182;5.736;2023-08-07T00:53:45;99531.34;;;19.35;47.84
66196;BME280;53000;45.182;5.736;2023-08-07T00:56:11;99519.31;;;19.30;48.46
66196;BME280;53000;45.182;5.736;2023-08-07T00:58:37;99523.09;;;19.35;47.80
66196;BME280;53000;45.182;5.736;2023-08-07T01:01:03;99525.69;;;19.30;49.00
66196;BME280;53000;45.182;5.736;2023-08-07T01:03:29;99524.69;;;19.18;48.62
66196;BME280;53000;45.182;5.736;2023-08-07T01:05:55;99523.59;;;19.19;49.09
66196;BME280;53000;45.182;5.736;2023-08-07T01:08:20;99526.34;;;19.19;49.44
66196;BME280;53000;45.182;5.736;2023-08-07T01:10:59;99533.34;;;19.15;48.80
66196;BME280;53000;45.182;5.736;2023-08-07T01:13:34;99524.75;;;19.05;48.97
66196;BME280;53000;45.182;5.736;2023-08-07T01:16:14;99531.13;;;18.98;50.49
66196;BME280;53000;45.182;5.736;2023-08-07T01:18:42;99531.16;;;18.92;50.50
66196;BME280;53000;45.182;5.736;2023-08-07T01:21:19;99531.56;;;18.89;50.16
66196;BME280;53000;45.182;5.736;2023-08-07T01:23:48;99526.53;;;18.86;50.63
66196;BME280;53000;45.182;5.736;2023-08-07T01:26:15;99529.03;;;18.87;51.65
66196;BME280;53000;45.182;5.736;2023-08-07T01:28:47;99537.69;;;18.91;49.88
66196;BME280;53000;45.182;5.736;2023-08-07T01:31:20;99527.38;;;18.86;50.00
66196;BME280;53000;45.182;5.736;2023-08-07T01:34:04;99535.59;;;18.86;49.76
66196;BME280;53000;45.182;5.736;2023-08-07T01:36:30;99529.47;;;18.77;50.52
66196;BME280;53000;45.182;5.736;2023-08-07T01:38:57;99536.88;;;18.77;49.95
66196;BME280;53000;45.182;5.736;2023-08-07T01:41:24;99531.41;;;18.70;51.79
66196;BME280;53000;45.182;5.736;2023-08-07T01:43:51;99550.81;;;18.69;50.83
66196;BME280;53000;45.182;5.736;2023-08-07T01:46:18;99534.59;;;18.60;51.38
66196;BME280;53000;45.182;5.736;2023-08-07T01:48:43;99537.75;;;18.71;51.04
66196;BME280;53000;45.182;5.736;2023-08-07T01:51:08;99540.06;;;18.67;51.15
66196;BME280;53000;45.182;5.736;2023-08-07T01:53:34;99535.88;;;18.58;51.56
66196;BME280;53000;45.182;5.736;2023-08-07T01:55:59;99536.72;;;18.58;51.11
66196;BME280;53000;45.182;5.736;2023-08-07T01:58:25;99536.09;;;18.56;50.95
66196;BME280;53000;45.182;5.736;2023-08-07T02:00:50;99529.13;;;18.54;51.35
66196;BME280;53000;45.182;5.736;2023-08-07T02:03:15;99515.03;;;18.44;51.62
66196;BME280;53000;45.182;5.736;2023-08-07T02:05:41;99527.69;;;18.38;52.83
66196;BME280;53000;45.182;5.736;2023-08-07T02:08:06;99529.59;;;18.31;52.58
66196;BME280;53000;45.182;5.736;2023-08-07T02:10:31;99531.28;;;18.25;52.48
66196;BME280;53000;45.182;5.736;2023-08-07T02:12:57;99530.03;;;18.14;53.86
66196;BME280;53000;45.182;5.736;2023-08-07T02:15:23;99543.75;;;18.21;53.23
66196;BME280;53000;45.182;5.736;2023-08-07T02:17:48;99547.34;;;18.22;52.33
66196;BME280;53000;45.182;5.736;2023-08-07T02:20:14;99547.13;;;18.23;52.93
66196;BME280;53000;45.182;5.736;2023-08-07T02:22:39;99542.69;;;18.22;53.48
66196;BME280;53000;45.182;5.736;2023-08-07T02:25:05;99546.25;;;18.23;52.92
66196;BME280;53000;45.182;5.736;2023-08-07T02:27:30;99542.91;;;18.21;52.62
66196;BME280;53000;45.182;5.736;2023-08-07T02:29:56;99545.44;;;18.22;53.62
66196;BME280;53000;45.182;5.736;2023-08-07T02:32:21;99534.69;;;18.14;53.24
66196;BME280;53000;45.182;5.736;2023-08-07T02:34:46;99549.03;;;18.16;53.45
66196;BME280;53000;45.182;5.736;2023-08-07T02:37:12;99546.91;;;18.18;54.01
66196;BME280;53000;45.182;5.736;2023-08-07T02:39:37;99544.38;;;18.16;52.93
66196;BME280;53000;45.182;5.736;2023-08-07T02:42:03;99548.19;;;18.15;53.04
66196;BME280;53000;45.182;5.736;2023-08-07T02:44:28;99548.81;;;18.17;53.53
66196;BME280;53000;45.182;5.736;2023-08-07T02:46:53;99535.97;;;18.11;53.44
66196;BME280;53000;45.182;5.736;2023-08-07T02:49:19;99544.59;;;18.15;53.80
66196;BME280;53000;45.182;5.736;2023-08-07T02:51:44;99536.38;;;18.15;53.24
66196;BME280;53000;45.182;5.736;2023-08-07T02:54:09;99540.41;;;18.12;54.02
66196;BME280;53000;45.182;5.736;2023-08-07T02:56:35;99545.66;;;18.14;53.08
66196;BME280;53000;45.182;5.736;2023-08-07T02:59:00;99536.41;;;18.08;53.47
66196;BME280;53000;45.182;5.736;2023-08-07T03:01:26;99549.47;;;18.13;54.38
66196;BME280;53000;45.182;5.736;2023-08-07T03:03:53;99546.91;;;18.11;53.43
66196;BME280;53000;45.182;5.736;2023-08-07T03:06:18;99549.47;;;18.13;52.94
66196;BME280;53000;45.182;5.736;2023-08-07T03:08:43;99536.81;;;18.05;53.22
66196;BME280;53000;45.182;5.736;2023-08-07T03:11:09;99539.34;;;18.07;53.64
66196;BME280;53000;45.182;5.736;2023-08-07T03:13:34;99543.56;;;18.09;53.59
66196;BME280;53000;45.182;5.736;2023-08-07T03:16:01;99533.44;;;17.96;53.99
66196;BME280;53000;45.182;5.736;2023-08-07T03:18:27;99555.56;;;18.08;53.98
66196;BME280;53000;45.182;5.736;2023-08-07T03:20:53;99552.59;;;18.03;53.68
66196;BME280;53000;45.182;5.736;2023-08-07T03:23:19;99548.22;;;17.89;53.78
66196;BME280;53000;45.182;5.736;2023-08-07T03:25:44;99545.00;;;17.78;53.78
66196;BME280;53000;45.182;5.736;2023-08-07T03:28:09;99552.59;;;17.76;54.21
66196;BME280;53000;45.182;5.736;2023-08-07T03:30:35;99559.53;;;17.79;54.55
66196;BME280;53000;45.182;5.736;2023-08-07T03:33:00;99557.22;;;17.76;54.94
66196;BME280;53000;45.182;5.736;2023-08-07T03:35:26;99543.75;;;17.68;54.75
66196;BME280;53000;45.182;5.736;2023-08-07T03:37:51;99556.59;;;17.74;53.99
66196;BME280;53000;45.182;5.736;2023-08-07T03:40:16;99557.81;;;17.71;56.06
66196;BME280;53000;45.182;5.736;2023-08-07T03:42:42;99556.78;;;17.72;54.68
66196;BME280;53000;45.182;5.736;2023-08-07T03:45:07;99561.00;;;17.75;54.57
66196;BME280;53000;45.182;5.736;2023-08-07T03:47:33;99550.47;;;17.72;54.35
66196;BME280;53000;45.182;5.736;2023-08-07T03:49:58;99552.78;;;17.75;54.47
66196;BME280;53000;45.182;5.736;2023-08-07T03:52:23;99557.44;;;17.81;54.61
66196;BME280;53000;45.182;5.736;2023-08-07T03:54:49;99546.94;;;17.85;53.94
66196;BME280;53000;45.182;5.736;2023-08-07T03:57:14;99542.50;;;17.84;54.61
66196;BME280;53000;45.182;5.736;2023-08-07T03:59:39;99547.56;;;17.87;53.99
66196;BME280;53000;45.182;5.736;2023-08-07T04:02:05;99562.75;;;17.89;54.41
66196;BME280;53000;45.182;5.736;2023-08-07T04:04:31;99565.03;;;17.92;54.91
66196;BME280;53000;45.182;5.736;2023-08-07T04:06:56;99553.06;;;17.93;53.81
66196;BME280;53000;45.182;5.736;2023-08-07T04:09:21;99557.88;;;17.98;54.54
66196;BME280;53000;45.182;5.736;2023-08-07T04:11:47;99555.16;;;17.98;53.78
66196;BME280;53000;45.182;5.736;2023-08-07T04:14:12;99555.78;;;18.00;54.16
66196;BME280;53000;45.182;5.736;2023-08-07T04:16:38;99550.72;;;17.97;54.71
66196;BME280;53000;45.182;5.736;2023-08-07T04:19:03;99547.13;;;17.96;54.40
66196;BME280;53000;45.182;5.736;2023-08-07T04:21:30;99544.81;;;18.00;53.94
66196;BME280;53000;45.182;5.736;2023-08-07T04:23:55;99541.47;;;17.98;54.33
66196;BME280;53000;45.182;5.736;2023-08-07T04:26:22;99548.59;;;18.06;53.77
66196;BME280;53000;45.182;5.736;2023-08-07T04:28:47;99537.66;;;18.06;53.71
66196;BME280;53000;45.182;5.736;2023-08-07T04:31:13;99537.00;;;18.04;53.97
66196;BME280;53000;45.182;5.736;2023-08-07T04:33:39;99532.38;;;17.91;54.48
66196;BME280;53000;45.182;5.736;2023-08-07T04:36:04;99521.00;;;17.81;53.67
66196;BME280;53000;45.182;5.736;2023-08-07T04:38:30;99524.81;;;17.86;54.65
66196;BME280;53000;45.182;5.736;2023-08-07T04:40:55;99525.25;;;17.83;54.34
66196;BME280;53000;45.182;5.736;2023-08-07T04:43:20;99533.00;;;17.73;54.26
66196;BME280;53000;45.182;5.736;2023-08-07T04:45:46;99529.41;;;17.66;54.64
66196;BME280;53000;45.182;5.736;2023-08-07T04:48:12;99538.47;;;17.66;54.83
66196;BME280;53000;45.182;5.736;2023-08-07T04:50:37;99547.09;;;17.63;55.12
66196;BME280;53000;45.182;5.736;2023-08-07T04:53:04;99544.34;;;17.56;55.00
66196;BME280;53000;45.182;5.736;2023-08-07T04:55:30;99548.97;;;17.63;55.15
66196;BME280;53000;45.182;5.736;2023-08-07T04:57:55;99554.06;;;17.66;55.44
66196;BME280;53000;45.182;5.736;2023-08-07T05:00:22;99560.81;;;17.70;54.65
66196;BME280;53000;45.182;5.736;2023-08-07T05:02:47;99565.22;;;17.71;55.48
66196;BME280;53000;45.182;5.736;2023-08-07T05:05:16;99554.47;;;17.69;55.60
66196;BME280;53000;45.182;5.736;2023-08-07T05:07:42;99541.41;;;17.65;55.10
66196;BME280;53000;45.182;5.736;2023-08-07T05:10:09;99549.41;;;17.73;54.59
66196;BME280;53000;45.182;5.736;2023-08-07T05:12:34;99550.47;;;17.72;54.57
66196;BME280;53000;45.182;5.736;2023-08-07T05:14:59;99556.34;;;17.69;54.96
66196;BME280;53000;45.182;5.736;2023-08-07T05:17:25;99555.09;;;17.65;55.17
66196;BME280;53000;45.182;5.736;2023-08-07T05:19:50;99555.09;;;17.58;54.78
66196;BME280;53000;45.182;5.736;2023-08-07T05:22:16;99552.97;;;17.53;55.36
66196;BME280;53000;45.182;5.736;2023-08-07T05:24:41;99558.88;;;17.57;55.52
66196;BME280;53000;45.182;5.736;2023-08-07T05:27:10;99563.50;;;17.56;55.22
66196;BME280;53000;45.182;5.736;2023-08-07T05:29:35;99563.72;;;17.55;55.21
66196;BME280;53000;45.182;5.736;2023-08-07T05:32:08;99560.34;;;17.53;55.08
66196;BME280;53000;45.182;5.736;2023-08-07T05:34:34;99562.66;;;17.49;54.89
66196;BME280;53000;45.182;5.736;2023-08-07T05:36:59;99559.28;;;17.47;55.35
66196;BME280;53000;45.182;5.736;2023-08-07T05:39:25;99559.25;;;17.41;55.33
66196;BME280;53000;45.182;5.736;2023-08-07T05:41:50;99569.78;;;17.37;55.38
66196;BME280;53000;45.182;5.736;2023-08-07T05:44:18;99566.81;;;17.32;55.45
66196;BME280;53000;45.182;5.736;2023-08-07T05:46:44;99567.66;;;17.26;55.59
66196;BME280;53000;45.182;5.736;2023-08-07T05:49:09;99571.84;;;17.22;55.54
66196;BME280;53000;45.182;5.736;2023-08-07T05:51:34;99558.97;;;17.09;55.36
66196;BME280;53000;45.182;5.736;2023-08-07T05:54:00;99575.63;;;17.21;55.88
66196;BME280;53000;45.182;5.736;2023-08-07T05:56:25;99574.19;;;17.25;55.46
66196;BME280;53000;45.182;5.736;2023-08-07T05:58:50;99576.91;;;17.25;56.38
66196;BME280;53000;45.182;5.736;2023-08-07T06:01:16;99583.41;;;17.24;55.51
66196;BME280;53000;45.182;5.736;2023-08-07T06:03:42;99584.91;;;17.26;55.24
66196;BME280;53000;45.182;5.736;2023-08-07T06:06:08;99580.28;;;17.27;55.18
66196;BME280;53000;45.182;5.736;2023-08-07T06:08:33;99582.63;;;17.36;55.99
66196;BME280;53000;45.182;5.736;2023-08-07T06:10:59;99588.75;;;17.45;55.35
66196;BME280;53000;45.182;5.736;2023-08-07T06:13:28;99592.13;;;17.54;54.77
66196;BME280;53000;45.182;5.736;2023-08-07T06:15:54;99582.25;;;17.53;54.90
66196;BME280;53000;45.182;5.736;2023-08-07T06:18:19;99588.81;;;17.65;54.91
66196;BME280;53000;45.182;5.736;2023-08-07T06:20:45;99585.00;;;17.66;54.81
66196;BME280;53000;45.182;5.736;2023-08-07T06:23:10;99593.84;;;17.82;54.18
66196;BME280;53000;45.182;5.736;2023-08-07T06:25:35;99595.13;;;17.79;54.22
66196;BME280;53000;45.182;5.736;2023-08-07T06:28:01;99596.00;;;17.86;54.37
66196;BME280;53000;45.182;5.736;2023-08-07T06:30:26;99602.53;;;17.92;53.75
66196;BME280;53000;45.182;5.736;2023-08-07T06:32:51;99600.00;;;17.97;53.93
66196;BME280;53000;45.182;5.736;2023-08-07T06:35:17;99593.91;;;17.95;53.65
66196;BME280;53000;45.182;5.736;2023-08-07T06:37:42;99597.50;;;17.95;53.95
66196;BME280;53000;45.182;5.736;2023-08-07T06:40:09;99593.50;;;18.05;53.79
66196;BME280;53000;45.182;5.736;2023-08-07T06:42:34;99592.66;;;18.17;53.89
66196;BME280;53000;45.182;5.736;2023-08-07T06:45:00;99593.91;;;18.28;53.07
66196;BME280;53000;45.182;5.736;2023-08-07T06:47:25;99588.63;;;18.33;53.08
66196;BME280;53000;45.182;5.736;2023-08-07T06:49:50;99592.84;;;18.36;52.69
66196;BME280;53000;45.182;5.736;2023-08-07T06:52:16;99581.03;;;18.35;52.96
66196;BME280;53000;45.182;5.736;2023-08-07T06:54:41;99582.09;;;18.41;52.82
66196;BME280;53000;45.182;5.736;2023-08-07T06:57:06;99596.41;;;18.56;52.45
66196;BME280;53000;45.182;5.736;2023-08-07T06:59:31;99581.00;;;18.62;52.44
66196;BME280;53000;45.182;5.736;2023-08-07T07:01:57;99575.91;;;18.72;52.37
66196;BME280;53000;45.182;5.736;2023-08-07T07:04:22;99581.16;;;18.80;52.16
66196;BME280;53000;45.182;5.736;2023-08-07T07:06:48;99574.22;;;18.78;51.94
66196;BME280;53000;45.182;5.736;2023-08-07T07:09:13;99589.16;;;18.89;51.95
66196;BME280;53000;45.182;5.736;2023-08-07T07:11:42;99573.81;;;18.81;51.77
66196;BME280;53000;45.182;5.736;2023-08-07T07:14:08;99597.81;;;18.92;51.69
66196;BME280;53000;45.182;5.736;2023-08-07T07:16:34;99580.72;;;18.90;51.92
66196;BME280;53000;45.182;5.736;2023-08-07T07:19:01;99584.53;;;18.96;51.24
66196;BME280;53000;45.182;5.736;2023-08-07T07:21:26;99577.13;;;18.96;51.49
66196;BME280;53000;45.182;5.736;2023-08-07T07:23:54;99568.94;;;18.90;51.62
66196;BME280;53000;45.182;5.736;2023-08-07T07:26:19;99569.13;;;18.88;51.65
66196;BME280;53000;45.182;5.736;2023-08-07T07:28:45;99578.78;;;18.97;51.49
66196;BME280;53000;45.182;5.736;2023-08-07T07:31:10;99574.97;;;19.05;51.45
66196;BME280;53000;45.182;5.736;2023-08-07T07:33:37;99576.63;;;19.13;50.94
66196;BME280;53000;45.182;5.736;2023-08-07T07:36:04;99572.78;;;19.20;50.64
66196;BME280;53000;45.182;5.736;2023-08-07T07:38:30;99575.91;;;19.31;49.87
66196;BME280;53000;45.182;5.736;2023-08-07T07:40:56;99576.50;;;19.78;49.92
66196;BME280;53000;45.182;5.736;2023-08-07T07:43:22;99578.53;;;22.04;48.10
66196;BME280;53000;45.182;5.736;2023-08-07T07:45:47;99561.28;;;24.57;45.06
66196;BME280;53000;45.182;5.736;2023-08-07T07:48:13;99568.31;;;26.82;40.62
66196;BME280;53000;45.182;5.736;2023-08-07T07:50:38;99568.94;;;28.70;35.45
66196;BME280;53000;45.182;5.736;2023-08-07T07:53:03;99572.59;;;30.25;33.87
66196;BME280;53000;45.182;5.736;2023-08-07T07:55:29;99568.72;;;31.51;32.25
66196;BME280;53000;45.182;5.736;2023-08-07T07:57:54;99563.81;;;32.66;32.73
66196;BME280;53000;45.182;5.736;2023-08-07T08:00:21;99581.00;;;33.84;32.06
66196;BME280;53000;45.182;5.736;2023-08-07T08:02:47;99573.47;;;35.00;29.66
66196;BME280;53000;45.182;5.736;2023-08-07T08:05:13;99567.06;;;35.83;27.97
66196;BME280;53000;45.182;5.736;2023-08-07T08:07:40;99575.47;;;36.53;26.26
66196;BME280;53000;45.182;5.736;2023-08-07T08:10:07;99569.44;;;37.19;25.48
66196;BME280;53000;45.182;5.736;2023-08-07T08:12:34;99570.56;;;37.78;23.64
66196;BME280;53000;45.182;5.736;2023-08-07T08:15:00;99567.97;;;38.27;24.62
66196;BME280;53000;45.182;5.736;2023-08-07T08:17:25;99572.44;;;38.61;21.17
66196;BME280;53000;45.182;5.736;2023-08-07T08:19:51;99580.38;;;38.93;21.88
66196;BME280;53000;45.182;5.736;2023-08-07T08:22:16;99573.34;;;38.99;22.18
66196;BME280;53000;45.182;5.736;2023-08-07T08:24:41;99581.47;;;39.00;23.25
66196;BME280;53000;45.182;5.736;2023-08-07T08:27:07;99578.19;;;39.23;21.65
66196;BME280;53000;45.182;5.736;2023-08-07T08:29:32;99588.22;;;39.57;20.93
66196;BME280;53000;45.182;5.736;2023-08-07T08:31:57;99574.72;;;39.66;21.56
66196;BME280;53000;45.182;5.736;2023-08-07T08:34:23;99571.94;;;39.82;20.62
66196;BME280;53000;45.182;5.736;2023-08-07T08:36:48;99579.84;;;40.01;21.25
66196;BME280;53000;45.182;5.736;2023-08-07T08:39:14;99577.16;;;40.21;19.64
66196;BME280;53000;45.182;5.736;2023-08-07T08:41:40;99578.81;;;40.22;19.69
66196;BME280;53000;45.182;5.736;2023-08-07T08:44:09;99575.88;;;40.18;18.93
66196;BME280;53000;45.182;5.736;2023-08-07T08:46:36;99582.16;;;39.71;19.20
66196;BME280;53000;45.182;5.736;2023-08-07T08:49:03;99583.81;;;39.72;18.78
66196;BME280;53000;45.182;5.736;2023-08-07T08:51:30;99573.38;;;39.89;18.00
66196;BME280;53000;45.182;5.736;2023-08-07T08:53:56;99574.31;;;39.80;18.54
66196;BME280;53000;45.182;5.736;2023-08-07T08:56:22;99575.13;;;39.40;18.07
66196;BME280;53000;45.182;5.736;2023-08-07T08:58:51;99570.63;;;39.02;19.38
66196;BME280;53000;45.182;5.736;2023-08-07T09:01:20;99571.81;;;39.14;19.51
66196;BME280;53000;45.182;5.736;2023-08-07T09:03:45;99568.22;;;38.92;18.36
66196;BME280;53000;45.182;5.736;2023-08-07T09:06:11;99566.19;;;38.22;19.36
66196;BME280;53000;45.182;5.736;2023-08-07T09:08:40;99560.41;;;37.56;19.13
66196;BME280;53000;45.182;5.736;2023-08-07T09:11:07;99560.50;;;37.09;19.36
66196;BME280;53000;45.182;5.736;2023-08-07T09:13:33;99558.34;;;36.58;19.30
66196;BME280;53000;45.182;5.736;2023-08-07T09:16:00;99560.06;;;36.33;19.27
66196;BME280;53000;45.182;5.736;2023-08-07T09:18:27;99561.09;;;36.11;20.12
66196;BME280;53000;45.182;5.736;2023-08-07T09:20:52;99563.91;;;36.02;19.90
66196;BME280;53000;45.182;5.736;2023-08-07T09:23:18;99567.56;;;35.94;20.79
66196;BME280;53000;45.182;5.736;2023-08-07T09:25:44;99573.19;;;36.20;18.82
66196;BME280;53000;45.182;5.736;2023-08-07T09:28:09;99568.41;;;36.12;20.63
66196;BME280;53000;45.182;5.736;2023-08-07T09:30:36;99567.06;;;36.18;19.68
66196;BME280;53000;45.182;5.736;2023-08-07T09:33:03;99575.00;;;36.08;20.18
66196;BME280;53000;45.182;5.736;2023-08-07T09:35:30;99579.00;;;35.98;18.66
66196;BME280;53000;45.182;5.736;2023-08-07T09:37:59;99580.13;;;35.62;19.61
66196;BME280;53000;45.182;5.736;2023-08-07T09:40:26;99576.28;;;35.40;20.82
66196;BME280;53000;45.182;5.736;2023-08-07T09:42:53;99575.59;;;35.43;20.69
66196;BME280;53000;45.182;5.736;2023-08-07T09:45:25;99572.47;;;35.36;19.80
66196;BME280;53000;45.182;5.736;2023-08-07T09:48:04;99568.78;;;35.18;21.04
66196;BME280;53000;45.182;5.736;2023-08-07T09:50:31;99567.78;;;34.83;19.46
66196;BME280;53000;45.182;5.736;2023-08-07T09:52:57;99563.72;;;34.35;20.26
66196;BME280;53000;45.182;5.736;2023-08-07T09:55:23;99570.50;;;34.12;20.85
66196;BME280;53000;45.182;5.736;2023-08-07T09:57:49;99567.59;;;34.03;19.86
66196;BME280;53000;45.182;5.736;2023-08-07T10:00:15;99569.53;;;33.94;18.94
66196;BME280;53000;45.182;5.736;2023-08-07T10:02:42;99556.03;;;33.82;20.61
66196;BME280;53000;45.182;5.736;2023-08-07T10:05:10;99537.47;;;33.58;20.38
66196;BME280;53000;45.182;5.736;2023-08-07T10:07:40;99570.38;;;33.30;20.54
66196;BME280;53000;45.182;5.736;2023-08-07T10:10:06;99553.84;;;33.29;20.70
66196;BME280;53000;45.182;5.736;2023-08-07T10:12:32;99545.56;;;33.24;19.29
66196;BME280;53000;45.182;5.736;2023-08-07T10:15:01;99536.63;;;33.08;20.59
66196;BME280;53000;45.182;5.736;2023-08-07T10:17:27;99549.91;;;33.16;20.73
66196;BME280;53000;45.182;5.736;2023-08-07T10:19:53;99553.75;;;33.34;19.56
66196;BME280;53000;45.182;5.736;2023-08-07T10:22:19;99545.22;;;33.39;19.61
66196;BME280;53000;45.182;5.736;2023-08-07T10:24:48;99534.59;;;33.50;20.30
66196;BME280;53000;45.182;5.736;2023-08-07T10:27:16;99537.09;;;33.51;20.30
66196;BME280;53000;45.182;5.736;2023-08-07T10:29:43;99534.47;;;33.69;20.55
66196;BME280;53000;45.182;5.736;2023-08-07T10:32:11;99523.06;;;33.88;19.82
66196;BME280;53000;45.182;5.736;2023-08-07T10:34:37;99526.31;;;33.81;19.47
66196;BME280;53000;45.182;5.736;2023-08-07T10:37:06;99528.47;;;33.84;18.88
66196;BME280;53000;45.182;5.736;2023-08-07T10:39:32;99526.63;;;33.79;18.90
66196;BME280;53000;45.182;5.736;2023-08-07T10:41:57;99526.94;;;33.78;19.91
66196;BME280;53000;45.182;5.736;2023-08-07T10:44:25;99512.06;;;33.77;18.94
66196;BME280;53000;45.182;5.736;2023-08-07T10:46:55;99509.47;;;33.81;19.77
66196;BME280;53000;45.182;5.736;2023-08-07T10:49:33;99510.91;;;33.78;19.56
66196;BME280;53000;45.182;5.736;2023-08-07T10:52:18;99516.84;;;33.77;18.89
66196;BME280;53000;45.182;5.736;2023-08-07T10:54:49;99508.19;;;33.87;19.94
66196;BME280;53000;45.182;5.736;2023-08-07T10:57:16;99517.44;;;33.88;19.17
66196;BME280;53000;45.182;5.736;2023-08-07T11:02:26;99523.16;;;33.83;19.43
66196;BME280;53000;45.182;5.736;2023-08-07T11:04:52;99526.88;;;33.55;17.68
66196;BME280;53000;45.182;5.736;2023-08-07T11:07:30;99510.56;;;33.21;19.14
66196;BME280;53000;45.182;5.736;2023-08-07T11:09:57;99521.84;;;32.60;18.89
66196;BME280;53000;45.182;5.736;2023-08-07T11:12:29;99515.22;;;32.10;20.15
66196;BME280;53000;45.182;5.736;2023-08-07T11:14:55;99504.03;;;31.91;19.85
66196;BME280;53000;45.182;5.736;2023-08-07T11:17:25;99512.69;;;31.75;20.31
66196;BME280;53000;45.182;5.736;2023-08-07T11:19:51;99503.97;;;31.77;20.67
66196;BME280;53000;45.182;5.736;2023-08-07T11:22:16;99522.44;;;31.78;19.13
66196;BME280;53000;45.182;5.736;2023-08-07T11:24:42;99513.22;;;31.58;19.31
66196;BME280;53000;45.182;5.736;2023-08-07T11:27:08;99473.47;;;30.75;20.18
66196;BME280;53000;45.182;5.736;2023-08-07T11:29:33;99503.44;;;30.16;21.31
66196;BME280;53000;45.182;5.736;2023-08-07T11:31:59;99486.06;;;29.90;21.86
66196;BME280;53000;45.182;5.736;2023-08-07T11:34:24;99490.84;;;29.90;22.07
66196;BME280;53000;45.182;5.736;2023-08-07T11:36:50;99491.72;;;29.85;22.30
66196;BME280;53000;45.182;5.736;2023-08-07T11:39:16;99483.16;;;29.71;22.23
66196;BME280;53000;45.182;5.736;2023-08-07T11:41:42;99481.56;;;29.60;22.10
66196;BME280;53000;45.182;5.736;2023-08-07T11:44:09;99484.47;;;29.45;22.73
66196;BME280;53000;45.182;5.736;2023-08-07T11:46:35;99486.97;;;29.46;22.25
66196;BME280;53000;45.182;5.736;2023-08-07T11:49:01;99490.25;;;29.53;21.92
66196;BME280;53000;45.182;5.736;2023-08-07T11:51:29;99489.63;;;29.62;22.16
66196;BME280;53000;45.182;5.736;2023-08-07T11:53:54;99510.16;;;29.81;22.28
66196;BME280;53000;45.182;5.736;2023-08-07T11:56:24;99504.22;;;29.93;21.93
66196;BME280;53000;45.182;5.736;2023-08-07T11:58:51;99494.25;;;29.82;22.15
66196;BME280;53000;45.182;5.736;2023-08-07T12:01:26;99494.59;;;29.75;22.04
66196;BME280;53000;45.182;5.736;2023-08-07T12:03:55;99474.22;;;29.74;22.38
66196;BME280;53000;45.182;5.736;2023-08-07T12:06:25;99494.03;;;29.78;22.37
66196;BME280;53000;45.182;5.736;2023-08-07T12:08:54;99483.47;;;29.70;22.28
66196;BME280;53000;45.182;5.736;2023-08-07T12:11:20;99469.84;;;29.58;22.36
66196;BME280;53000;45.182;5.736;2023-08-07T12:13:46;99464.34;;;29.48;22.76
66196;BME280;53000;45.182;5.736;2023-08-07T12:16:14;99456.06;;;29.38;22.09
66196;BME280;53000;45.182;5.736;2023-08-07T12:18:46;99467.84;;;29.29;22.93
66196;BME280;53000;45.182;5.736;2023-08-07T12:21:14;99469.47;;;29.35;23.28
66196;BME280;53000;45.182;5.736;2023-08-07T12:23:40;99471.31;;;29.50;22.92
66196;BME280;53000;45.182;5.736;2023-08-07T12:26:06;99455.63;;;29.60;22.44
66196;BME280;53000;45.182;5.736;2023-08-07T12:28:35;99462.28;;;29.64;23.02
66196;BME280;53000;45.182;5.736;2023-08-07T12:31:01;99467.22;;;29.77;22.05
66196;BME280;53000;45.182;5.736;2023-08-07T12:33:28;99446.44;;;29.59;22.56
66196;BME280;53000;45.182;5.736;2023-08-07T12:35:53;99449.09;;;29.35;23.13
66196;BME280;53000;45.182;5.736;2023-08-07T12:38:19;99445.47;;;29.40;22.99
66196;BME280;53000;45.182;5.736;2023-08-07T12:40:44;99443.84;;;29.33;22.60
66196;BME280;53000;45.182;5.736;2023-08-07T12:43:10;99436.69;;;29.17;22.72
66196;BME280;53000;45.182;5.736;2023-08-07T12:45:36;99443.97;;;29.03;22.85
66196;BME280;53000;45.182;5.736;2023-08-07T12:48:02;99454.44;;;28.82;23.12
66196;BME280;53000;45.182;5.736;2023-08-07T12:50:28;99470.59;;;28.74;23.09
66196;BME280;53000;45.182;5.736;2023-08-07T12:52:53;99449.75;;;28.67;23.14
66196;BME280;53000;45.182;5.736;2023-08-07T12:55:19;99443.94;;;28.43;23.50
66196;BME280;53000;45.182;5.736;2023-08-07T12:57:45;99445.66;;;28.23;24.05